createdAt,value
2018-07-25T00:01:47.606Z,96999.95
2018-07-25T00:04:16.659Z,96985.20
2018-07-25T00:06:45.763Z,96995.27
2018-07-25T00:09:14.950Z,96992.03
2018-07-25T00:11:44.058Z,96981.56
2018-07-25T00:14:13.332Z,96981.42
2018-07-25T00:16:42.514Z,96972.97
2018-07-25T00:19:11.593Z,96981.34
2018-07-25T00:21:40.523Z,96988.17
2018-07-25T00:24:09.514Z,96980.42
2018-07-25T00:26:38.590Z,96982.13
2018-07-25T00:29:07.787Z,96977.38
2018-07-25T00:31:36.747Z,96982.72
2018-07-25T00:34:05.609Z,96978.94
2018-07-25T00:36:34.471Z,96971.36
2018-07-25T00:39:03.566Z,96975.45
2018-07-25T00:41:32.846Z,96969.28
2018-07-25T00:44:01.851Z,96980.19
2018-07-25T00:46:31.018Z,96975.77
2018-07-25T00:49:00.027Z,96975.72
2018-07-25T00:51:29.125Z,96972.98
2018-07-25T00:53:58.274Z,96975.53
2018-07-25T00:56:27.389Z,96971.78
2018-07-25T00:58:56.307Z,96974.31
2018-07-25T01:01:25.511Z,96974.60
2018-07-25T01:03:54.585Z,96970.45
2018-07-25T01:06:23.538Z,96966.30
2018-07-25T01:08:52.651Z,96969.39
2018-07-25T01:11:21.731Z,96962.58
2018-07-25T01:13:50.597Z,96966.19
2018-07-25T01:16:19.868Z,96960.14
2018-07-25T01:18:49.198Z,96959.09
2018-07-25T01:21:18.452Z,96963.44
2018-07-25T01:23:47.701Z,96963.77
2018-07-25T01:26:16.871Z,96963.14
2018-07-25T01:28:45.610Z,96962.80
2018-07-25T01:31:14.708Z,96967.92
2018-07-25T01:33:43.590Z,96968.00
2018-07-25T01:36:12.732Z,96968.91
2018-07-25T01:38:41.892Z,96967.31
2018-07-25T01:41:11.175Z,96961.31
2018-07-25T01:43:40.099Z,96962.39
2018-07-25T01:46:09.051Z,96962.88
2018-07-25T01:48:38.045Z,96957.30
2018-07-25T01:51:07.182Z,96960.55
2018-07-25T01:53:36.327Z,96961.95
2018-07-25T01:56:05.579Z,96956.05
2018-07-25T01:58:34.760Z,96957.45
2018-07-25T02:01:03.730Z,96955.42
2018-07-25T02:03:32.727Z,96955.70
2018-07-25T02:06:01.768Z,96956.21
2018-07-25T02:08:30.887Z,96957.47
2018-07-25T02:10:59.948Z,96963.72
2018-07-25T02:13:29.259Z,96963.34
2018-07-25T02:15:58.382Z,96962.16
2018-07-25T02:18:27.531Z,96961.05
2018-07-25T02:20:56.800Z,96960.47
2018-07-25T02:23:25.658Z,96955.70
2018-07-25T02:25:54.944Z,96962.31
2018-07-25T02:28:23.951Z,96954.28
2018-07-25T02:30:52.995Z,96956.95
2018-07-25T02:33:26.254Z,96961.59
2018-07-25T02:38:23.240Z,96967.42
2018-07-25T02:40:52.402Z,96972.61
2018-07-25T02:43:21.446Z,96969.76
2018-07-25T02:45:50.372Z,96971.44
2018-07-25T02:48:19.534Z,96979.67
2018-07-25T02:50:48.430Z,96973.32
2018-07-25T02:53:17.669Z,96981.44
2018-07-25T02:55:46.760Z,96983.48
2018-07-25T02:58:15.595Z,96981.86
2018-07-25T03:00:44.713Z,96980.67
2018-07-25T03:03:14.056Z,96980.88
2018-07-25T03:05:43.126Z,96983.11
2018-07-25T03:08:11.990Z,96986.47
2018-07-25T03:10:45.254Z,96988.36
2018-07-25T03:13:14.686Z,96988.31
2018-07-25T03:15:43.899Z,96991.80
2018-07-25T03:18:12.703Z,96992.37
2018-07-25T03:20:41.501Z,96995.67
2018-07-25T03:23:10.643Z,96988.17
2018-07-25T03:25:39.856Z,96991.95
2018-07-25T03:28:08.919Z,96993.14
2018-07-25T03:30:38.170Z,96992.52
2018-07-25T03:33:07.263Z,96994.58
2018-07-25T03:35:36.593Z,97007.05
2018-07-25T03:38:05.747Z,97000.89
2018-07-25T03:40:34.850Z,96999.05
2018-07-25T03:43:03.610Z,97000.46
2018-07-25T03:48:00.690Z,97009.78
2018-07-25T03:50:30.040Z,97014.20
2018-07-25T03:52:59.274Z,97019.25
2018-07-25T03:55:28.466Z,97013.57
2018-07-25T03:57:57.842Z,97015.73
2018-07-25T04:00:26.958Z,97014.69
2018-07-25T04:02:56.227Z,97021.98
2018-07-25T04:05:25.270Z,97025.42
2018-07-25T04:07:54.321Z,97029.99
2018-07-25T04:10:23.571Z,97030.55
2018-07-25T04:12:52.768Z,97032.45
2018-07-25T04:15:21.801Z,97037.02
2018-07-25T04:17:50.739Z,97033.91
2018-07-25T04:20:20.701Z,97035.53
2018-07-25T04:22:49.587Z,97038.50
2018-07-25T04:25:18.422Z,97042.06
2018-07-25T04:27:47.743Z,97036.68
2018-07-25T04:30:17.804Z,97039.98
2018-07-25T04:32:46.960Z,97045.73
2018-07-25T04:35:16.987Z,97040.69
2018-07-25T04:37:45.841Z,97044.11
2018-07-25T04:40:14.909Z,97037.80
2018-07-25T04:42:44.096Z,97043.14
2018-07-25T04:45:13.451Z,97038.98
2018-07-25T04:47:42.558Z,97035.83
2018-07-25T04:50:11.478Z,97039.69
2018-07-25T04:52:40.295Z,97038.35
2018-07-25T04:55:09.295Z,97037.50
2018-07-25T04:57:38.463Z,97038.43
2018-07-25T05:00:07.744Z,97045.16
2018-07-25T05:02:36.787Z,97041.30
2018-07-25T05:05:05.962Z,97036.70
2018-07-25T05:07:35.163Z,97039.38
2018-07-25T05:10:04.085Z,97044.42
2018-07-25T05:12:33.010Z,97047.39
2018-07-25T05:15:02.234Z,97049.58
2018-07-25T05:17:31.331Z,97058.08
2018-07-25T05:20:00.505Z,97057.56
2018-07-25T05:22:29.610Z,97067.36
2018-07-25T05:24:58.864Z,97063.84
2018-07-25T05:27:28.059Z,97066.09
2018-07-25T05:29:57.182Z,97074.45
2018-07-25T05:32:26.439Z,97076.69
2018-07-25T05:34:55.705Z,97079.47
2018-07-25T05:37:24.915Z,97081.84
2018-07-25T05:39:54.082Z,97080.98
2018-07-25T05:42:23.291Z,97081.94
2018-07-25T05:44:52.163Z,97079.81
2018-07-25T05:47:21.417Z,97090.72
2018-07-25T05:49:50.231Z,97086.92
2018-07-25T05:52:19.347Z,97087.34
2018-07-25T05:54:48.525Z,97083.29
2018-07-25T05:57:17.799Z,97080.88
2018-07-25T05:59:47.035Z,97080.61
2018-07-25T06:02:15.871Z,97082.05
2018-07-25T06:04:45.019Z,97077.64
2018-07-25T06:07:14.218Z,97073.95
2018-07-25T06:09:43.418Z,97076.15
2018-07-25T06:12:12.654Z,97081.02
2018-07-25T06:14:41.637Z,97072.35
2018-07-25T06:17:11.049Z,97077.73
2018-07-25T06:19:40.090Z,97078.69
2018-07-25T06:22:08.999Z,97075.91
2018-07-25T06:24:38.098Z,97076.70
2018-07-25T06:27:07.140Z,97081.97
2018-07-25T06:29:36.306Z,97084.28
2018-07-25T06:32:05.502Z,97071.59
2018-07-25T06:34:34.630Z,97079.47
2018-07-25T06:37:03.526Z,97088.30
2018-07-25T06:39:32.930Z,97081.20
2018-07-25T06:42:02.327Z,97090.56
2018-07-25T06:44:31.528Z,97087.40
2018-07-25T06:47:00.586Z,97086.23
2018-07-25T06:49:29.903Z,97089.61
2018-07-25T06:51:59.075Z,97091.31
2018-07-25T06:54:28.189Z,97091.47
2018-07-25T06:56:57.435Z,97099.13
2018-07-25T06:59:26.326Z,97101.36
2018-07-25T07:01:55.456Z,97103.22
2018-07-25T07:04:24.744Z,97098.66
2018-07-25T07:06:53.802Z,97100.34
2018-07-25T07:09:22.957Z,97100.05
2018-07-25T07:11:52.002Z,97112.09
2018-07-25T07:14:21.238Z,97109.75
2018-07-25T07:16:50.558Z,97112.34
2018-07-25T07:19:19.680Z,97108.77
2018-07-25T07:21:48.867Z,97111.94
2018-07-25T07:24:18.079Z,97108.28
2018-07-25T07:26:47.378Z,97117.48
2018-07-25T07:29:16.330Z,97119.00
2018-07-25T07:31:45.594Z,97119.69
2018-07-25T07:34:14.530Z,97118.98
2018-07-25T07:36:43.891Z,97122.00
2018-07-25T07:39:14.130Z,97125.87
2018-07-25T07:41:43.375Z,97118.44
2018-07-25T07:44:12.288Z,97119.69
2018-07-25T07:46:41.175Z,97128.75
2018-07-25T07:49:10.272Z,97122.01
2018-07-25T07:51:39.014Z,97121.73
2018-07-25T07:54:08.350Z,97126.54
2018-07-25T07:56:37.290Z,97125.36
2018-07-25T08:19:09.908Z,97139.66
2018-07-25T08:21:39.179Z,97141.91
2018-07-25T08:24:08.243Z,97137.02
2018-07-25T08:26:37.470Z,97132.72
2018-07-25T08:29:06.546Z,97134.66
2018-07-25T08:31:35.579Z,97144.09
2018-07-25T08:34:04.786Z,97145.70
2018-07-25T08:36:33.999Z,97151.77
2018-07-25T08:39:02.970Z,97138.69
2018-07-25T08:41:31.808Z,97139.64
2018-07-25T08:44:00.858Z,97135.62
2018-07-25T08:46:29.562Z,97129.63
2018-07-25T08:48:58.687Z,97124.91
2018-07-25T08:51:27.803Z,97127.30
2018-07-25T08:53:56.938Z,97134.28
2018-07-25T08:56:26.062Z,97130.31
2018-07-25T08:58:55.331Z,97128.16
2018-07-25T09:01:24.343Z,97133.63
2018-07-25T09:03:53.381Z,97128.91
2018-07-25T09:06:22.272Z,97128.63
2018-07-25T09:08:51.319Z,97127.09
2018-07-25T09:11:26.582Z,97125.14
2018-07-25T09:13:55.858Z,97115.44
2018-07-25T09:16:24.632Z,97118.92
2018-07-25T09:18:53.847Z,97118.27
2018-07-25T09:21:23.218Z,97119.55
2018-07-25T09:23:52.477Z,97122.45
2018-07-25T09:26:21.705Z,97106.56
2018-07-25T09:28:50.886Z,97107.61
2018-07-25T09:31:19.985Z,97109.27
2018-07-25T09:33:49.111Z,97117.61
2018-07-25T09:36:18.277Z,97119.82
2018-07-25T09:38:47.296Z,97120.86
2018-07-25T09:41:16.565Z,97118.52
2018-07-25T09:43:45.646Z,97121.89
2018-07-25T09:46:14.838Z,97111.85
2018-07-25T09:48:43.894Z,97114.54
2018-07-25T09:51:12.742Z,97120.10
2018-07-25T09:53:41.885Z,97110.16
2018-07-25T09:56:11.127Z,97105.89
2018-07-25T09:58:40.311Z,97099.59
2018-07-25T10:01:09.661Z,97094.59
2018-07-25T10:03:38.705Z,97088.78
2018-07-25T10:06:07.893Z,97091.73
2018-07-25T10:08:37.110Z,97078.12
2018-07-25T10:11:06.211Z,97089.07
2018-07-25T10:13:35.628Z,97090.79
2018-07-25T10:16:04.811Z,97094.80
2018-07-25T10:18:33.900Z,97092.88
2018-07-25T10:21:03.477Z,97092.72
2018-07-25T10:23:32.691Z,97093.78
2018-07-25T10:26:01.535Z,97087.22
2018-07-25T10:28:30.810Z,97093.00
2018-07-25T10:30:59.727Z,97084.05
2018-07-25T10:33:29.004Z,97080.60
2018-07-25T10:35:58.000Z,97085.28
2018-07-25T10:38:27.156Z,97087.67
2018-07-25T10:40:56.372Z,97076.65
2018-07-25T10:43:25.851Z,97072.27
2018-07-25T10:45:55.640Z,97075.45
2018-07-25T10:48:24.662Z,97065.63
2018-07-25T10:50:53.964Z,97069.18
2018-07-25T10:53:23.144Z,97064.54
2018-07-25T10:55:52.400Z,97066.03
2018-07-25T10:58:21.598Z,97064.70
2018-07-25T11:00:50.867Z,97067.99
2018-07-25T11:03:19.918Z,97068.20
2018-07-25T11:05:49.327Z,97064.19
2018-07-25T11:08:18.529Z,97063.30
2018-07-25T11:10:47.460Z,97055.06
2018-07-25T11:13:16.495Z,97061.34
2018-07-25T11:15:45.663Z,97053.48
2018-07-25T11:18:14.725Z,97053.20
2018-07-25T11:20:43.914Z,97044.10
2018-07-25T11:23:13.163Z,97039.39
2018-07-25T11:25:41.798Z,97046.72
2018-07-25T11:28:11.093Z,97053.27
2018-07-25T11:30:40.098Z,97056.63
2018-07-25T11:33:09.196Z,97051.59
2018-07-25T11:35:38.384Z,97052.07
2018-07-25T11:38:07.605Z,97054.20
2018-07-25T11:40:36.759Z,97057.93
2018-07-25T11:43:05.909Z,97047.55
2018-07-25T11:45:34.845Z,97057.22
2018-07-25T11:48:04.002Z,97056.03
2018-07-25T11:50:33.235Z,97050.44
2018-07-25T11:53:02.234Z,97049.64
2018-07-25T11:55:31.407Z,97056.83
2018-07-25T11:58:00.331Z,97045.16
2018-07-25T12:00:29.513Z,97047.97
2018-07-25T12:02:58.597Z,97043.31
2018-07-25T12:05:27.680Z,97044.95
2018-07-25T12:07:56.797Z,97050.34
2018-07-25T12:10:26.010Z,97039.05
2018-07-25T12:12:55.121Z,97054.91
2018-07-25T12:15:24.235Z,97054.73
2018-07-25T12:17:53.474Z,97063.55
2018-07-25T12:20:22.794Z,97063.16
2018-07-25T12:22:52.068Z,97066.31
2018-07-25T12:25:21.434Z,97064.84
2018-07-25T12:27:50.365Z,97066.59
2018-07-25T12:30:19.551Z,97069.73
2018-07-25T12:32:48.535Z,97064.59
2018-07-25T12:35:17.764Z,97058.28
2018-07-25T12:37:46.958Z,97055.50
2018-07-25T12:40:15.877Z,97061.88
2018-07-25T12:42:44.831Z,97062.53
2018-07-25T12:45:14.594Z,97056.03
2018-07-25T12:47:43.578Z,97061.17
2018-07-25T12:50:12.579Z,97062.35
2018-07-25T12:52:41.715Z,97058.06
2018-07-25T12:55:10.841Z,97058.41
2018-07-25T12:57:39.970Z,97054.68
2018-07-25T13:00:09.218Z,97051.45
2018-07-25T13:02:38.436Z,97047.88
2018-07-25T13:05:07.962Z,97046.98
2018-07-25T13:07:37.110Z,97041.02
2018-07-25T13:10:06.550Z,97031.31
2018-07-25T13:12:36.442Z,97035.16
2018-07-25T13:15:05.966Z,97027.61
2018-07-25T13:17:34.762Z,97021.59
2018-07-25T13:20:03.775Z,97018.06
2018-07-25T13:22:33.747Z,97019.65
2018-07-25T13:25:03.741Z,97024.17
2018-07-25T13:27:32.919Z,97027.78
2018-07-25T13:30:02.059Z,97033.16
2018-07-25T13:32:31.082Z,97036.83
2018-07-25T13:35:00.323Z,97036.83
2018-07-25T13:37:29.421Z,97042.25
2018-07-25T13:39:58.265Z,97038.11
2018-07-25T13:42:27.351Z,97037.09
2018-07-25T13:44:56.432Z,97035.30
2018-07-25T13:47:25.623Z,97038.05
2018-07-25T13:49:54.778Z,97042.09
2018-07-25T13:52:24.090Z,97043.98
2018-07-25T13:54:53.269Z,97029.16
2018-07-25T13:57:22.159Z,97034.22
2018-07-25T13:59:50.995Z,97035.02
2018-07-25T14:02:19.867Z,97036.14
2018-07-25T14:04:48.843Z,97029.69
2018-07-25T14:07:18.042Z,97027.87
2018-07-25T14:09:46.998Z,97025.83
2018-07-25T14:12:15.758Z,97025.55
2018-07-25T14:14:44.615Z,97020.91
2018-07-25T14:17:13.919Z,97027.77
2018-07-25T14:19:43.138Z,97026.36
2018-07-25T14:22:12.256Z,97031.34
2018-07-25T14:24:41.170Z,97030.02
2018-07-25T14:27:10.763Z,97031.06
2018-07-25T14:29:40.035Z,97026.27
2018-07-25T14:32:09.223Z,97029.13
2018-07-25T14:34:38.351Z,97025.22
2018-07-25T14:37:07.387Z,97022.31
2018-07-25T14:39:37.123Z,97024.64
2018-07-25T14:42:06.312Z,97027.17
2018-07-25T14:44:35.456Z,97026.27
2018-07-25T14:47:04.727Z,97026.92
2018-07-25T14:49:33.857Z,97021.95
2018-07-25T14:52:02.784Z,97027.66
2018-07-25T14:54:31.799Z,97028.13
2018-07-25T14:57:00.930Z,97024.19
2018-07-25T14:59:30.134Z,97024.64
2018-07-25T15:01:59.288Z,97029.58
2018-07-25T15:04:28.343Z,97025.86
2018-07-25T15:06:57.569Z,97022.51
2018-07-25T15:09:27.016Z,97014.34
2018-07-25T15:11:55.875Z,97013.86
2018-07-25T15:14:24.898Z,97012.31
2018-07-25T15:16:53.798Z,97013.10
2018-07-25T15:19:22.876Z,97009.16
2018-07-25T15:21:58.548Z,97006.83
2018-07-25T15:24:27.583Z,97014.80
2018-07-25T15:26:56.619Z,97024.45
2018-07-25T15:29:25.916Z,97017.43
2018-07-25T15:31:54.728Z,97012.91
2018-07-25T15:34:23.998Z,97017.45
2018-07-25T15:36:53.958Z,97017.16
2018-07-25T15:39:25.006Z,97019.73
2018-07-25T15:41:55.141Z,97016.60
2018-07-25T15:44:25.412Z,97020.47
2018-07-25T15:46:54.517Z,97022.66
2018-07-25T15:49:23.466Z,97019.97
2018-07-25T15:51:52.813Z,97021.31
2018-07-25T15:54:21.971Z,97028.75
2018-07-25T15:56:51.304Z,97025.86
2018-07-25T15:59:20.388Z,97020.64
2018-07-25T16:01:49.469Z,97024.07
2018-07-25T16:04:18.450Z,97024.88
2018-07-25T16:06:47.366Z,97022.34
2018-07-25T16:09:16.383Z,97021.99
2018-07-25T16:11:47.223Z,97026.03
2018-07-25T16:14:16.411Z,97035.49
2018-07-25T16:16:45.761Z,97027.70
2018-07-25T16:19:15.094Z,97029.90
2018-07-25T16:21:44.214Z,97035.49
2018-07-25T16:24:13.575Z,97035.64
2018-07-25T16:26:42.596Z,97033.12
2018-07-25T16:29:11.882Z,97034.18
2018-07-25T16:31:41.120Z,97028.30
2018-07-25T16:34:09.939Z,97040.64
2018-07-25T16:36:39.231Z,97034.49
2018-07-25T16:39:11.590Z,97040.11
2018-07-25T16:41:40.720Z,97043.14
2018-07-25T16:44:09.975Z,97049.88
2018-07-25T16:46:39.049Z,97050.41
2018-07-25T16:49:08.487Z,97055.62
2018-07-25T16:51:37.659Z,97062.70
2018-07-25T16:54:06.662Z,97063.38
2018-07-25T16:56:35.559Z,97070.81
2018-07-25T16:59:04.657Z,97072.66
2018-07-25T17:01:33.838Z,97083.42
2018-07-25T17:04:03.091Z,97084.09
2018-07-25T17:06:32.216Z,97088.98
2018-07-25T17:09:01.300Z,97088.84
2018-07-25T17:11:30.361Z,97090.70
2018-07-25T17:13:59.670Z,97093.06
2018-07-25T17:16:28.811Z,97098.78
2018-07-25T17:18:58.107Z,97099.09
2018-07-25T17:21:27.129Z,97103.13
2018-07-25T17:23:56.166Z,97105.27
2018-07-25T17:26:25.198Z,97104.01
2018-07-25T17:28:54.516Z,97101.31
2018-07-25T17:31:23.770Z,97100.27
2018-07-25T17:33:52.778Z,97105.60
2018-07-25T17:36:21.843Z,97107.12
2018-07-25T17:38:50.986Z,97107.06
2018-07-25T17:41:20.208Z,97097.80
2018-07-25T17:43:49.343Z,97107.63
2018-07-25T17:46:18.903Z,97112.15
2018-07-25T17:48:48.296Z,97112.12
2018-07-25T17:51:17.323Z,97117.52
2018-07-25T17:53:46.494Z,97116.51
2018-07-25T17:56:15.743Z,97113.13
2018-07-25T17:58:44.983Z,97119.65
2018-07-25T18:01:14.169Z,97118.83
2018-07-25T18:03:42.994Z,97126.88
2018-07-25T18:06:12.086Z,97129.38
2018-07-25T18:08:41.020Z,97126.45
2018-07-25T18:11:10.295Z,97131.45
2018-07-25T18:13:44.620Z,97136.13
2018-07-25T18:16:13.774Z,97142.80
2018-07-25T18:18:43.170Z,97147.68
2018-07-25T18:21:12.242Z,97156.50
2018-07-25T18:23:41.436Z,97161.22
2018-07-25T18:26:10.539Z,97167.02
2018-07-25T18:28:39.850Z,97174.58
2018-07-25T18:31:09.034Z,97181.94
2018-07-25T18:33:37.742Z,97188.48
2018-07-25T18:36:07.070Z,97191.61
2018-07-25T18:38:36.215Z,97199.98
2018-07-25T18:41:05.261Z,97210.44
2018-07-25T18:43:34.533Z,97209.73
2018-07-25T18:46:03.572Z,97203.84
2018-07-25T18:51:08.082Z,97220.16
2018-07-25T18:53:37.755Z,97213.77
2018-07-25T18:56:07.373Z,97212.17
2018-07-25T18:58:36.375Z,97216.98
2018-07-25T19:01:06.329Z,97212.06
2018-07-25T19:03:35.719Z,97215.03
2018-07-25T19:06:04.959Z,97213.27
2018-07-25T19:08:34.150Z,97202.47
2018-07-25T19:11:03.503Z,97210.13
2018-07-25T19:13:33.746Z,97206.66
2018-07-25T19:16:04.396Z,97204.30
2018-07-25T19:18:33.691Z,97208.93
2018-07-25T19:21:02.799Z,97210.20
2018-07-25T19:23:32.514Z,97210.75
2018-07-25T19:26:01.745Z,97218.80
2018-07-25T19:28:30.514Z,97223.81
2018-07-25T19:30:59.743Z,97215.17
2018-07-25T19:33:28.783Z,97211.45
2018-07-25T19:35:57.998Z,97209.20
2018-07-25T19:38:27.286Z,97215.41
2018-07-25T19:40:56.074Z,97219.58
2018-07-25T19:43:25.199Z,97214.46
2018-07-25T19:45:54.464Z,97220.22
2018-07-25T19:48:23.573Z,97224.94
2018-07-25T19:50:52.710Z,97224.23
2018-07-25T19:53:21.691Z,97217.84
2018-07-25T19:55:50.923Z,97224.17
2018-07-25T19:58:20.170Z,97221.16
2018-07-25T20:00:49.318Z,97214.91
2018-07-25T20:03:18.480Z,97226.45
2018-07-25T20:05:48.038Z,97228.94
2018-07-25T20:08:17.267Z,97228.79
2018-07-25T20:10:47.047Z,97221.80
2018-07-25T20:13:16.059Z,97219.91
2018-07-25T20:15:49.914Z,97217.59
2018-07-25T20:18:19.588Z,97217.07
2018-07-25T20:20:49.270Z,97222.43
2018-07-25T20:23:18.351Z,97214.62
2018-07-25T20:25:47.490Z,97216.64
2018-07-25T20:28:16.638Z,97217.98
2018-07-25T20:30:45.822Z,97218.47
2018-07-25T20:33:14.874Z,97213.89
2018-07-25T20:35:44.734Z,97212.64
2018-07-25T20:38:13.934Z,97216.55
2018-07-25T20:40:42.665Z,97217.37
2018-07-25T20:43:11.614Z,97211.20
2018-07-25T20:45:40.772Z,97214.95
2018-07-25T20:48:09.788Z,97220.27
2018-07-25T20:50:39.078Z,97214.36
2018-07-25T20:53:08.449Z,97222.25
2018-07-25T20:55:37.578Z,97212.88
2018-07-25T20:58:06.950Z,97217.38
2018-07-25T21:00:36.535Z,97212.51
2018-07-25T21:03:07.039Z,97215.00
2018-07-25T21:05:36.090Z,97212.51
2018-07-25T21:08:05.223Z,97200.35
2018-07-25T21:10:34.531Z,97198.13
2018-07-25T21:13:03.612Z,97195.52
2018-07-25T21:15:32.754Z,97198.13
2018-07-25T21:18:01.947Z,97201.95
2018-07-25T21:20:30.995Z,97205.30
2018-07-25T21:23:00.115Z,97205.03
2018-07-25T21:25:29.267Z,97206.63
2018-07-25T21:27:58.522Z,97202.47
2018-07-25T21:30:27.619Z,97204.96
2018-07-25T21:32:56.662Z,97210.95
2018-07-25T21:35:25.863Z,97204.59
2018-07-25T21:37:54.917Z,97206.78
2018-07-25T21:40:24.093Z,97209.53
2018-07-25T21:42:53.242Z,97219.34
2018-07-25T21:45:22.404Z,97217.63
2018-07-25T21:47:51.434Z,97218.97
2018-07-25T21:50:20.511Z,97219.48
2018-07-25T21:52:49.657Z,97221.08
2018-07-25T21:55:18.515Z,97218.97
2018-07-25T21:57:47.822Z,97218.63
2018-07-25T22:00:17.492Z,97227.00
2018-07-25T22:02:47.438Z,97214.88
2018-07-25T22:05:16.782Z,97216.15
2018-07-25T22:07:46.648Z,97217.48
2018-07-25T22:10:15.849Z,97211.50
2018-07-25T22:12:44.918Z,97221.94
2018-07-25T22:15:13.994Z,97216.66
2018-07-25T22:17:43.118Z,97225.03
2018-07-25T22:20:13.082Z,97222.98
2018-07-25T22:22:42.034Z,97216.88
2018-07-25T22:25:11.193Z,97211.68
2018-07-25T22:27:40.467Z,97210.97
2018-07-25T22:30:09.546Z,97216.80
2018-07-25T22:32:38.363Z,97204.98
2018-07-25T22:35:07.557Z,97209.36
2018-07-25T22:37:36.313Z,97205.55
2018-07-25T22:40:05.597Z,97210.60
2018-07-25T22:42:34.795Z,97211.31
2018-07-25T22:45:03.913Z,97212.72
2018-07-25T22:47:32.960Z,97219.77
2018-07-25T22:50:02.141Z,97217.80
2018-07-25T22:52:31.388Z,97223.70
2018-07-25T22:55:00.603Z,97230.33
2018-07-25T22:57:29.344Z,97221.59
2018-07-25T22:59:58.301Z,97219.92
2018-07-25T23:02:27.561Z,97219.69
2018-07-25T23:04:56.682Z,97211.48
2018-07-25T23:07:25.873Z,97213.38
2018-07-25T23:09:55.018Z,97216.53
2018-07-25T23:12:23.957Z,97217.02
2018-07-25T23:14:53.283Z,97218.84
2018-07-25T23:17:22.026Z,97216.68
2018-07-25T23:19:51.159Z,97211.81
2018-07-25T23:22:20.339Z,97204.98
2018-07-25T23:24:49.448Z,97210.33
2018-07-25T23:27:18.477Z,97208.09
2018-07-25T23:29:47.479Z,97211.11
2018-07-25T23:32:16.718Z,97216.19
2018-07-25T23:34:45.830Z,97217.94
2018-07-25T23:37:15.088Z,97216.12
2018-07-25T23:39:44.398Z,97222.88
2018-07-25T23:42:13.558Z,97222.31
2018-07-25T23:44:42.699Z,97218.30
2018-07-25T23:47:11.900Z,97221.32
2018-07-25T23:49:40.662Z,97222.52
2018-07-25T23:52:09.742Z,97229.13
2018-07-25T23:54:38.947Z,97224.08
2018-07-25T23:57:08.123Z,97228.57
2018-07-25T23:59:37.326Z,97231.12
